Malvinas Argentinas Airport

SAWH · Tierra del Fuego, 阿根廷

罗盘
风向 的 Malvinas Argentinas Airport 7/25
风: 2 kt, 1 beaufort


2 kt
改变
0 ft 1.000 2.000 3.000 4.000 5.000
CAVOK
METAR SAWH 161700Z VRB02KT CAVOK 09/07 Q1000

METAR Malvinas Argentinas Airport - SAWH/USH

Malvinas Argentinas Airport是,阿根廷中的中型机场。 该机场位于纬度-54,84330和经度-68,29580。 该机场有一条跑道: 7/25. 本场的ICAO机场代码为SAWH。 该机场的IATA代码为USH。 机场在Comodoro Rivadavia FIR中。

该航空气象观测是针对Malvinas Argentinas Airport在2024年4月16日 14:00, 当地时间进行的。

机场观察

可变方向的风很小或没有风。

天气为CAVOK。这意味着在5.000 ft或MSA(最低安全高度)以下(以较高者为准)以下没有云。这也意味着没有观测到积雨云或高耸的积云,可见度为10 km 或者更多或更高。此外,不会有雾,降雨或其他重要天气。

温度为9 °C,阵风为8 °C。 露点为7 °C,相对湿度为87%。 海平面上的气压为1000 hPa (QNH)。

白天

今天,太阳从08:27升起,在18:38降落。 这适用于Malvinas Argentinas Airport,世界夏令时可能有所不同。 当地时间与世界标准时间之间的时差为-3 小时。 夏令时目前正在进行中。

公司介绍

我们没有关于这个机场的公司信息。

体会

到Vliegles.nl去找飞行课程,跳伞和其他飞行体验。 浏览页面,了解Malvinas Argentinas Airport附近所有可用的活动。 你也可以使用搜索功能来寻找你所在地附近的特定飞行课程、跳伞或其他飞行体验。

跑道

Id 标题 侧风 逆风 侧风 %
7/25 085°-265° 2 kt 100 %

逆风成分最大的方向会被突出显示,并用于横风计算。 这并不一定意味着这个方向在使用。

温度 & 天气

温度 9 °C
露点 7 °C
相对湿度 87%
风寒 8 °C
Kp-index 4 (0-9)

白天

日出
08:27
中午
13:32
日落
18:38 (3:43)

小工具

你想在你的网站上有一个关于Malvinas Argentinas Airport的当前航空天气(METAR)的小部件吗?

显示HTML代码
报告变更